createdAt,value
2019-05-21T00:00:23.218Z,96.07
2019-05-21T00:01:23.229Z,95.86
2019-05-21T00:02:23.200Z,95.86
2019-05-21T00:03:23.205Z,95.66
2019-05-21T00:04:28.211Z,95.71
2019-05-21T00:05:24.161Z,95.81
2019-05-21T00:06:23.179Z,96.01
2019-05-21T00:07:23.143Z,96.07
2019-05-21T00:08:23.149Z,95.56
2019-05-21T00:09:23.127Z,95.66
2019-05-21T00:10:23.109Z,95.97
2019-05-21T00:11:23.129Z,95.86
2019-05-21T00:12:23.089Z,95.86
2019-05-21T00:13:23.090Z,96.11
2019-05-21T00:14:23.066Z,95.97
2019-05-21T00:15:23.054Z,96.07
2019-05-21T00:16:23.077Z,95.86
2019-05-21T00:17:23.034Z,95.97
2019-05-21T00:18:23.034Z,96.07
2019-05-21T00:19:23.024Z,95.66
2019-05-21T00:20:23.000Z,96.11
2019-05-21T00:21:23.035Z,95.91
2019-05-21T00:22:22.989Z,95.91
2019-05-21T00:23:22.981Z,95.97
2019-05-21T00:24:22.960Z,95.81
2019-05-21T00:25:22.955Z,96.22
2019-05-21T00:26:22.958Z,95.86
2019-05-21T00:27:22.929Z,96.11
2019-05-21T00:28:22.927Z,96.31
2019-05-21T00:29:22.923Z,96.31
2019-05-21T00:30:22.901Z,96.31
2019-05-21T00:31:22.948Z,96.42
2019-05-21T00:32:22.872Z,95.91
2019-05-21T00:33:22.870Z,96.11
2019-05-21T00:34:22.858Z,96.11
2019-05-21T00:35:22.838Z,95.71
2019-05-21T00:36:22.844Z,95.81
2019-05-21T00:37:22.818Z,96.22
2019-05-21T00:38:22.816Z,96.11
2019-05-21T00:39:22.794Z,96.11
2019-05-21T00:40:22.799Z,96.22
2019-05-21T00:41:22.812Z,95.91
2019-05-21T00:42:22.777Z,96.31
2019-05-21T00:43:22.752Z,96.01
2019-05-21T00:44:22.750Z,96.01
2019-05-21T00:45:22.736Z,95.86
2019-05-21T00:46:22.740Z,96.17
2019-05-21T00:47:22.708Z,95.71
2019-05-21T00:48:22.709Z,96.17
2019-05-21T00:49:22.723Z,95.91
2019-05-21T00:50:22.684Z,96.07
2019-05-21T00:51:22.677Z,96.17
2019-05-21T00:52:22.672Z,96.22
2019-05-21T00:53:22.645Z,96.11
2019-05-21T00:54:22.656Z,96.22
2019-05-21T00:55:22.624Z,95.86
2019-05-21T00:56:22.613Z,95.91
2019-05-21T00:57:22.635Z,96.11
2019-05-21T00:58:22.601Z,96.11
2019-05-21T00:59:22.588Z,96.11
2019-05-21T01:00:22.592Z,96.22
2019-05-21T01:01:22.562Z,96.01
2019-05-21T01:02:22.570Z,96.42
2019-05-21T01:03:22.548Z,96.22
2019-05-21T01:04:22.553Z,96.22
2019-05-21T01:05:22.538Z,96.22
2019-05-21T01:06:22.529Z,96.22
2019-05-21T01:07:22.575Z,95.81
2019-05-21T01:08:22.495Z,96.42
2019-05-21T01:09:22.477Z,96.42
2019-05-21T01:10:22.482Z,96.72
2019-05-21T01:11:22.486Z,96.87
2019-05-21T01:12:22.463Z,96.77
2019-05-21T01:13:22.434Z,96.87
2019-05-21T01:14:22.420Z,96.36
2019-05-21T01:15:22.427Z,96.66
2019-05-21T01:16:22.422Z,96.46
2019-05-21T01:17:22.406Z,97.38
2019-05-21T01:18:22.377Z,96.77
2019-05-21T01:19:22.367Z,97.38
2019-05-21T01:20:22.355Z,96.66
2019-05-21T01:21:22.350Z,96.66
2019-05-21T01:22:22.369Z,96.77
2019-05-21T01:23:22.333Z,96.46
2019-05-21T01:24:22.320Z,96.77
2019-05-21T01:25:22.306Z,96.66
2019-05-21T01:26:22.293Z,96.77
2019-05-21T01:27:22.299Z,96.66
2019-05-21T01:28:22.281Z,96.66
2019-05-21T01:29:22.275Z,96.66
2019-05-21T01:30:22.263Z,96.56
2019-05-21T01:31:22.239Z,96.66
2019-05-21T01:32:22.256Z,96.66
2019-05-21T01:33:22.216Z,96.26
2019-05-21T01:34:22.234Z,96.46
2019-05-21T01:35:22.195Z,96.77
2019-05-21T01:36:22.188Z,96.77
2019-05-21T01:37:22.188Z,97.38
2019-05-21T01:38:22.173Z,97.07
2019-05-21T01:39:22.183Z,97.47
2019-05-21T01:40:22.147Z,96.77
2019-05-21T01:41:22.132Z,96.61
2019-05-21T01:42:22.141Z,96.51
2019-05-21T01:43:22.106Z,96.41
2019-05-21T01:44:22.101Z,97.62
2019-05-21T01:45:22.096Z,97.42
2019-05-21T01:46:22.111Z,97.22
2019-05-21T01:47:22.070Z,97.22
2019-05-21T01:48:22.055Z,97.52
2019-05-21T01:49:22.043Z,97.32
2019-05-21T01:50:22.030Z,97.42
2019-05-21T01:51:22.055Z,97.36
2019-05-21T01:52:22.043Z,97.11
2019-05-21T01:53:22.008Z,97.26
2019-05-21T01:54:21.994Z,97.36
2019-05-21T01:55:21.981Z,97.26
2019-05-21T01:56:21.970Z,97.36
2019-05-21T01:57:21.980Z,97.36
2019-05-21T01:58:21.954Z,97.56
2019-05-21T01:59:21.947Z,97.56
2019-05-21T02:00:21.927Z,97.67
2019-05-21T02:01:21.935Z,97.36
2019-05-21T02:02:21.944Z,97.36
2019-05-21T02:03:21.907Z,97.26
2019-05-21T02:04:21.893Z,97.47
2019-05-21T02:05:32.526Z,97.47
2019-05-21T02:06:22.863Z,97.16
2019-05-21T02:07:21.880Z,97.26
2019-05-21T02:08:21.859Z,97.56
2019-05-21T02:09:21.835Z,97.26
2019-05-21T02:10:21.824Z,97.47
2019-05-21T02:11:21.807Z,97.26
2019-05-21T02:12:22.235Z,97.36
2019-05-21T02:13:21.792Z,97.06
2019-05-21T02:14:21.781Z,97.06
2019-05-21T02:15:21.760Z,97.26
2019-05-21T02:16:21.803Z,97.26
2019-05-21T02:17:21.768Z,97.56
2019-05-21T02:18:21.743Z,97.47
2019-05-21T02:19:21.720Z,97.16
2019-05-21T02:20:21.722Z,97.42
2019-05-21T02:21:21.700Z,97.47
2019-05-21T02:22:21.732Z,97.67
2019-05-21T02:23:21.688Z,97.36
2019-05-21T02:24:21.681Z,96.75
2019-05-21T02:25:21.664Z,96.86
2019-05-21T02:26:21.660Z,97.47
2019-05-21T02:27:21.678Z,96.96
2019-05-21T02:28:21.630Z,96.96
2019-05-21T02:29:21.620Z,96.75
2019-05-21T02:30:21.614Z,97.47
2019-05-21T02:31:21.600Z,97.36
2019-05-21T02:32:21.605Z,96.45
2019-05-21T02:33:21.571Z,96.96
2019-05-21T02:34:21.572Z,96.35
2019-05-21T02:35:21.568Z,96.25
2019-05-21T02:36:21.538Z,96.35
2019-05-21T02:37:21.546Z,96.55
2019-05-21T02:38:21.514Z,96.60
2019-05-21T02:39:21.512Z,96.70
2019-05-21T02:40:21.500Z,96.35
2019-05-21T02:41:21.500Z,96.55
2019-05-21T02:42:21.497Z,96.55
2019-05-21T02:43:21.464Z,96.75
2019-05-21T02:44:21.459Z,96.45
2019-05-21T02:45:21.446Z,96.96
2019-05-21T02:46:29.747Z,96.25
2019-05-21T02:47:21.456Z,96.25
2019-05-21T02:48:21.416Z,96.04
2019-05-21T02:49:21.410Z,96.15
2019-05-21T02:50:21.392Z,95.74
2019-05-21T02:51:21.381Z,96.30
2019-05-21T02:52:21.402Z,95.84
2019-05-21T02:53:21.360Z,95.84
2019-05-21T02:54:38.795Z,95.74
2019-05-21T02:55:22.333Z,95.94
2019-05-21T02:56:21.323Z,95.68
2019-05-21T02:57:21.330Z,95.68
2019-05-21T02:58:21.340Z,95.89
2019-05-21T02:59:21.293Z,96.25
2019-05-21T03:00:21.285Z,96.19
2019-05-21T03:01:21.288Z,95.99
2019-05-21T03:02:21.312Z,96.25
2019-05-21T03:03:21.266Z,95.54
2019-05-21T03:04:21.248Z,95.43
2019-05-21T03:05:21.226Z,95.58
2019-05-21T03:06:21.227Z,95.43
2019-05-21T03:07:24.950Z,95.23
2019-05-21T03:08:21.214Z,95.03
2019-05-21T03:09:21.190Z,95.23
2019-05-21T03:10:21.174Z,95.28
2019-05-21T03:11:21.179Z,95.38
2019-05-21T03:12:21.167Z,95.23
2019-05-21T03:13:21.169Z,94.98
2019-05-21T03:14:21.140Z,95.23
2019-05-21T03:15:21.132Z,95.38
2019-05-21T03:16:21.112Z,94.93
2019-05-21T03:17:21.097Z,95.58
2019-05-21T03:18:21.113Z,95.13
2019-05-21T03:19:21.083Z,94.42
2019-05-21T03:20:21.071Z,94.53
2019-05-21T03:21:21.057Z,94.62
2019-05-21T03:22:21.045Z,94.62
2019-05-21T03:23:21.047Z,94.53
2019-05-21T03:24:21.026Z,94.57
2019-05-21T03:25:21.011Z,94.67
2019-05-21T03:26:21.003Z,94.83
2019-05-21T03:27:21.009Z,94.67
2019-05-21T03:28:21.009Z,94.62
2019-05-21T03:29:21.042Z,94.57
2019-05-21T03:30:20.968Z,94.26
2019-05-21T03:31:20.964Z,94.53
2019-05-21T03:32:20.947Z,94.06
2019-05-21T03:33:21.002Z,94.46
2019-05-21T03:34:20.920Z,94.37
2019-05-21T03:35:20.932Z,94.22
2019-05-21T03:36:32.466Z,94.17
2019-05-21T03:37:21.888Z,94.46
2019-05-21T03:38:20.910Z,94.77
2019-05-21T03:39:20.859Z,94.77
2019-05-21T03:40:20.853Z,94.42
2019-05-21T03:41:20.838Z,94.57
2019-05-21T03:42:20.842Z,94.62
2019-05-21T03:43:20.853Z,94.22
2019-05-21T03:44:20.811Z,94.26
2019-05-21T03:45:20.792Z,94.02
2019-05-21T03:46:20.791Z,94.02
2019-05-21T03:47:20.785Z,94.32
2019-05-21T03:48:20.789Z,94.17
2019-05-21T03:49:20.754Z,94.32
2019-05-21T03:50:20.753Z,93.91
2019-05-21T03:51:20.735Z,94.02
2019-05-21T03:52:20.730Z,93.91
2019-05-21T03:53:20.735Z,93.91
2019-05-21T03:54:20.718Z,93.61
2019-05-21T03:55:20.690Z,93.81
2019-05-21T03:56:20.688Z,94.02
2019-05-21T03:57:20.692Z,94.02
2019-05-21T03:58:20.680Z,94.12
2019-05-21T03:59:20.648Z,94.12
2019-05-21T04:00:20.651Z,94.22
2019-05-21T04:01:20.630Z,93.81
2019-05-21T04:02:20.616Z,93.21
2019-05-21T04:03:20.616Z,93.10
2019-05-21T04:04:20.588Z,93.21
2019-05-21T04:05:20.588Z,93.81
2019-05-21T04:06:20.566Z,93.10
2019-05-21T04:07:20.565Z,93.61
2019-05-21T04:08:20.579Z,93.81
2019-05-21T04:09:20.544Z,93.41
2019-05-21T04:10:20.526Z,93.41
2019-05-21T04:11:20.514Z,93.00
2019-05-21T04:12:20.508Z,93.77
2019-05-21T04:13:20.512Z,93.91
2019-05-21T04:14:20.482Z,93.61
2019-05-21T04:15:20.581Z,93.51
2019-05-21T04:16:20.466Z,93.21
2019-05-21T04:17:20.455Z,93.00
2019-05-21T04:18:20.473Z,93.37
2019-05-21T04:19:20.438Z,93.21
2019-05-21T04:20:20.427Z,92.70
2019-05-21T04:21:20.408Z,92.45
2019-05-21T04:22:20.402Z,92.35
2019-05-21T04:23:20.395Z,91.94
2019-05-21T04:24:20.401Z,91.85
2019-05-21T04:25:20.372Z,91.94
2019-05-21T04:26:20.409Z,91.64
2019-05-21T04:27:20.432Z,92.05
2019-05-21T04:28:20.349Z,91.94
2019-05-21T04:29:20.533Z,92.14
2019-05-21T04:30:20.404Z,91.94
2019-05-21T04:31:20.327Z,92.35
2019-05-21T04:32:20.297Z,91.85
2019-05-21T04:33:20.288Z,91.85
2019-05-21T04:34:20.446Z,91.85
2019-05-21T04:35:20.354Z,91.90
2019-05-21T04:36:20.280Z,91.85
2019-05-21T04:37:20.246Z,92.05
2019-05-21T04:38:20.240Z,92.05
2019-05-21T04:39:20.312Z,92.25
2019-05-21T04:40:20.234Z,91.85
2019-05-21T04:41:20.237Z,91.54
2019-05-21T04:42:20.196Z,91.64
2019-05-21T04:43:20.178Z,91.64
2019-05-21T04:44:20.191Z,91.60
2019-05-21T04:45:20.154Z,91.30
2019-05-21T04:46:20.147Z,91.30
2019-05-21T04:47:20.140Z,91.09
2019-05-21T04:48:20.157Z,91.39
2019-05-21T04:49:20.120Z,90.99
2019-05-21T04:50:20.098Z,90.89
2019-05-21T04:51:20.099Z,91.09
2019-05-21T04:52:20.131Z,91.19
2019-05-21T04:53:20.074Z,90.58
2019-05-21T04:54:20.078Z,90.89
2019-05-21T04:55:20.049Z,90.44
2019-05-21T04:56:20.034Z,90.44
2019-05-21T04:57:20.031Z,90.34
2019-05-21T04:58:20.017Z,90.44
2019-05-21T04:59:20.021Z,90.54
2019-05-21T05:00:20.009Z,89.83
2019-05-21T05:01:20.001Z,90.24
2019-05-21T05:02:19.966Z,89.43
2019-05-21T05:03:19.975Z,89.53
2019-05-21T05:04:21.605Z,89.43
2019-05-21T05:05:19.935Z,88.98
2019-05-21T05:06:19.938Z,88.74
2019-05-21T05:07:28.164Z,87.79
2019-05-21T05:08:20.906Z,86.93
2019-05-21T05:09:19.906Z,86.83
2019-05-21T05:10:19.933Z,86.33
2019-05-21T05:11:19.876Z,85.88
2019-05-21T05:12:19.879Z,83.96
2019-05-21T05:13:19.851Z,83.32
2019-05-21T05:14:19.858Z,83.36
2019-05-21T05:15:19.833Z,83.96
2019-05-21T05:16:19.821Z,84.06
2019-05-21T05:17:19.812Z,84.00
2019-05-21T05:18:19.822Z,84.20
2019-05-21T05:19:19.821Z,84.61
2019-05-21T05:20:19.773Z,84.11
2019-05-21T05:21:19.776Z,84.61
2019-05-21T05:22:19.756Z,84.45
2019-05-21T05:23:19.751Z,84.11
2019-05-21T05:24:19.768Z,84.14
2019-05-21T05:25:19.811Z,84.14
2019-05-21T05:26:19.816Z,84.65
2019-05-21T05:27:19.728Z,84.65
2019-05-21T05:28:19.695Z,84.61
2019-05-21T05:29:19.722Z,84.41
2019-05-21T05:30:19.669Z,84.91
2019-05-21T05:32:20.871Z,85.56
2019-05-21T05:33:19.642Z,85.16
2019-05-21T05:34:19.650Z,85.16
2019-05-21T05:35:19.691Z,85.82
2019-05-21T05:36:19.605Z,84.71
2019-05-21T05:37:19.588Z,84.51
2019-05-21T05:38:19.580Z,84.85
2019-05-21T05:40:20.722Z,84.85
2019-05-21T05:41:19.555Z,84.11
2019-05-21T05:42:19.539Z,84.11
2019-05-21T05:43:20.684Z,84.20
2019-05-21T05:44:26.816Z,84.20
2019-05-21T05:45:19.509Z,84.71
2019-05-21T05:46:19.515Z,84.61
2019-05-21T05:47:19.498Z,84.17
2019-05-21T05:48:19.480Z,84.17
2019-05-21T05:49:19.473Z,83.86
2019-05-21T05:50:19.451Z,83.56
2019-05-21T05:52:20.607Z,82.91
2019-05-21T05:53:19.595Z,83.01
2019-05-21T05:54:19.587Z,82.41
2019-05-21T05:55:19.568Z,82.91
2019-05-21T05:56:19.571Z,82.41
2019-05-21T05:57:19.536Z,82.41
2019-05-21T05:58:19.385Z,82.01
2019-05-21T05:59:19.386Z,82.41
2019-05-21T06:00:19.374Z,82.31
2019-05-21T06:01:19.338Z,82.95
2019-05-21T06:02:19.342Z,83.66
2019-05-21T06:03:19.317Z,83.36
2019-05-21T06:04:19.340Z,83.56
2019-05-21T06:05:19.311Z,83.92
2019-05-21T06:06:19.282Z,84.06
2019-05-21T06:07:19.275Z,84.06
2019-05-21T06:08:19.261Z,83.96
2019-05-21T06:09:19.286Z,84.06
2019-05-21T06:10:19.266Z,84.12
2019-05-21T06:11:19.223Z,84.27
2019-05-21T06:12:19.223Z,83.82
2019-05-21T06:13:19.204Z,83.72
2019-05-21T06:14:19.200Z,83.52
2019-05-21T06:15:19.220Z,83.62
2019-05-21T06:16:19.223Z,83.12
2019-05-21T06:17:19.160Z,83.62
2019-05-21T06:18:19.154Z,83.62
2019-05-21T06:19:19.151Z,83.32
2019-05-21T06:20:19.175Z,82.21
2019-05-21T06:21:19.142Z,82.37
2019-05-21T06:22:19.142Z,82.47
2019-05-21T06:23:19.109Z,82.17
2019-05-21T06:24:19.097Z,81.36
2019-05-21T06:25:19.105Z,81.96
2019-05-21T06:26:19.068Z,81.96
2019-05-21T06:27:19.068Z,81.56
2019-05-21T06:28:19.061Z,81.93
2019-05-21T06:29:19.038Z,82.33
2019-05-21T06:30:19.087Z,82.23
2019-05-21T06:31:19.022Z,82.13
2019-05-21T06:32:19.017Z,81.52
2019-05-21T06:33:19.007Z,81.93
2019-05-21T06:34:18.987Z,82.13
2019-05-21T06:35:18.997Z,81.42
2019-05-21T06:36:18.956Z,81.73
2019-05-21T06:37:18.986Z,81.52
2019-05-21T06:38:18.944Z,80.82
2019-05-21T06:39:18.980Z,80.82
2019-05-21T06:40:18.952Z,80.82
2019-05-21T06:41:18.908Z,81.02
2019-05-21T06:42:18.906Z,80.38
2019-05-21T06:43:18.888Z,80.98
2019-05-21T06:44:18.891Z,80.41
2019-05-21T06:45:18.910Z,80.68
2019-05-21T06:46:18.850Z,80.78
2019-05-21T06:47:18.836Z,80.58
2019-05-21T06:48:18.831Z,80.68
2019-05-21T06:49:18.836Z,80.58
2019-05-21T06:50:18.860Z,79.57
2019-05-21T06:51:18.806Z,78.96
2019-05-21T06:52:18.784Z,79.06
2019-05-21T06:53:18.787Z,79.36
2019-05-21T06:54:18.766Z,79.06
2019-05-21T06:55:18.778Z,79.36
2019-05-21T06:56:18.763Z,79.36
2019-05-21T06:57:18.775Z,79.03
2019-05-21T06:58:18.731Z,78.92
2019-05-21T06:59:18.714Z,78.63
2019-05-21T07:00:18.749Z,77.66
2019-05-21T07:01:26.463Z,78.76
2019-05-21T07:02:19.699Z,79.03
2019-05-21T07:03:18.680Z,78.72
2019-05-21T07:04:26.914Z,78.83
2019-05-21T07:05:18.679Z,79.03
2019-05-21T07:06:26.897Z,79.03
2019-05-21T07:07:18.793Z,78.39
2019-05-21T07:08:33.633Z,78.63
2019-05-21T07:09:19.594Z,79.19
2019-05-21T07:10:18.618Z,78.19
2019-05-21T07:11:18.569Z,78.08
2019-05-21T07:12:18.569Z,76.67
2019-05-21T07:13:18.562Z,77.88
2019-05-21T07:14:18.555Z,77.48
2019-05-21T07:15:18.555Z,77.48
2019-05-21T07:16:18.595Z,76.94
2019-05-21T07:17:18.513Z,76.87
2019-05-21T07:18:18.510Z,76.07
2019-05-21T07:19:18.487Z,75.96
2019-05-21T07:20:18.495Z,75.76
2019-05-21T07:21:18.475Z,75.73
2019-05-21T07:22:18.457Z,74.93
2019-05-21T07:23:18.449Z,74.52
2019-05-21T07:24:18.441Z,74.73
2019-05-21T07:25:18.454Z,75.02
2019-05-21T07:26:18.602Z,75.33
2019-05-21T07:27:18.405Z,75.13
2019-05-21T07:28:18.394Z,74.32
2019-05-21T07:29:18.387Z,73.11
2019-05-21T07:30:18.392Z,73.41
2019-05-21T07:31:18.381Z,73.61
2019-05-21T07:32:18.352Z,73.61
2019-05-21T07:33:18.345Z,73.92
2019-05-21T07:34:18.343Z,73.61
2019-05-21T07:35:18.341Z,74.22
2019-05-21T07:36:18.344Z,74.02
2019-05-21T07:37:18.306Z,73.88
2019-05-21T07:38:18.301Z,73.58
2019-05-21T07:39:18.282Z,73.88
2019-05-21T07:40:18.295Z,73.68
2019-05-21T07:41:20.338Z,73.58
2019-05-21T07:42:18.273Z,73.08
2019-05-21T07:43:18.238Z,72.97
2019-05-21T07:44:18.226Z,73.04
2019-05-21T07:45:18.949Z,71.23
2019-05-21T07:46:18.211Z,72.34
2019-05-21T07:47:18.194Z,71.87
2019-05-21T07:48:18.202Z,71.13
2019-05-21T07:49:18.179Z,72.14
2019-05-21T07:50:18.179Z,70.53
2019-05-21T07:51:18.153Z,70.43
2019-05-21T07:52:18.138Z,71.23
2019-05-21T07:53:18.135Z,71.23
2019-05-21T07:54:18.119Z,70.73
2019-05-21T07:55:18.130Z,71.63
2019-05-21T07:56:18.105Z,71.23
2019-05-21T07:57:18.090Z,70.83
2019-05-21T07:58:18.094Z,70.32
2019-05-21T07:59:18.070Z,70.43
2019-05-21T08:00:18.082Z,70.29
2019-05-21T08:01:18.041Z,69.79
2019-05-21T08:02:18.042Z,70.39
2019-05-21T08:03:18.023Z,70.09
2019-05-21T08:04:18.024Z,70.50
2019-05-21T08:05:18.036Z,70.09
2019-05-21T08:06:17.986Z,69.96
2019-05-21T08:07:17.977Z,69.85
2019-05-21T08:08:17.976Z,69.25
2019-05-21T08:09:17.948Z,69.35
2019-05-21T08:10:17.956Z,69.56
2019-05-21T08:11:17.932Z,68.95
2019-05-21T08:12:37.275Z,69.65
2019-05-21T08:13:18.911Z,69.65
2019-05-21T08:14:17.921Z,70.26
2019-05-21T08:15:17.904Z,69.56
2019-05-21T08:16:17.888Z,69.56
2019-05-21T08:17:17.873Z,69.25
2019-05-21T08:18:17.866Z,69.06
2019-05-21T08:19:17.857Z,68.75
2019-05-21T08:20:17.869Z,68.95
2019-05-21T08:21:17.831Z,69.06
2019-05-21T08:22:17.834Z,68.25
2019-05-21T08:23:17.803Z,67.61
2019-05-21T08:24:17.806Z,66.81
2019-05-21T08:25:17.808Z,66.81
2019-05-21T08:26:17.774Z,66.71
2019-05-21T08:27:17.762Z,67.71
2019-05-21T08:28:17.761Z,66.71
2019-05-21T08:29:17.745Z,67.21
2019-05-21T08:30:17.769Z,66.81
2019-05-21T08:31:17.727Z,67.01
2019-05-21T08:32:17.705Z,66.91
2019-05-21T08:33:17.700Z,66.71
2019-05-21T08:34:17.708Z,67.01
2019-05-21T08:35:17.700Z,66.38
2019-05-21T08:36:17.665Z,65.41
2019-05-21T08:37:17.673Z,65.47
2019-05-21T08:38:17.665Z,64.87
2019-05-21T08:39:28.361Z,65.54
2019-05-21T08:40:18.652Z,64.97
2019-05-21T08:41:17.622Z,64.24
2019-05-21T08:42:17.614Z,64.34
2019-05-21T08:43:17.593Z,64.43
2019-05-21T08:44:17.617Z,64.14
2019-05-21T08:45:17.580Z,64.24
2019-05-21T08:46:17.583Z,64.11
2019-05-21T08:47:17.549Z,64.51
2019-05-21T08:48:17.537Z,64.51
2019-05-21T08:49:17.530Z,63.60
2019-05-21T08:50:17.515Z,64.11
2019-05-21T08:51:17.537Z,64.40
2019-05-21T08:52:17.491Z,64.11
2019-05-21T08:53:17.498Z,64.11
2019-05-21T08:54:17.475Z,63.81
2019-05-21T08:55:17.471Z,63.81
2019-05-21T08:56:17.485Z,63.57
2019-05-21T08:57:17.481Z,63.78
2019-05-21T08:58:17.433Z,63.47
2019-05-21T08:59:17.433Z,64.18
2019-05-21T09:00:17.414Z,63.75
2019-05-21T09:01:17.435Z,63.84
2019-05-21T09:02:17.398Z,63.51
2019-05-21T09:03:17.377Z,64.01
2019-05-21T09:04:17.381Z,64.01
2019-05-21T09:05:17.416Z,63.08
2019-05-21T09:06:17.369Z,63.01
2019-05-21T09:07:17.345Z,62.51
2019-05-21T09:08:17.334Z,61.28
2019-05-21T09:09:17.313Z,60.78
2019-05-21T09:10:17.303Z,60.28
2019-05-21T09:11:17.313Z,60.38
2019-05-21T09:12:17.281Z,59.75
2019-05-21T09:13:18.081Z,60.05
2019-05-21T09:14:17.255Z,58.85
2019-05-21T09:15:17.262Z,58.25
2019-05-21T09:16:17.256Z,58.65
2019-05-21T09:17:17.225Z,57.92
2019-05-21T09:18:17.227Z,57.92
2019-05-21T09:19:17.221Z,57.72
2019-05-21T09:20:17.208Z,57.92
2019-05-21T09:21:17.207Z,58.02
2019-05-21T09:22:17.175Z,58.32
2019-05-21T09:23:17.163Z,57.72
2019-05-21T09:24:17.155Z,57.22
2019-05-21T09:25:17.149Z,57.62
2019-05-21T09:26:17.173Z,57.82
2019-05-21T09:27:17.121Z,58.22
2019-05-21T09:28:17.110Z,57.82
2019-05-21T09:29:17.100Z,57.29
2019-05-21T09:30:17.122Z,57.29
2019-05-21T09:31:17.115Z,57.37
2019-05-21T09:32:17.071Z,56.84
2019-05-21T09:33:17.068Z,56.34
2019-05-21T09:34:17.048Z,56.14
2019-05-21T09:35:17.072Z,55.04
2019-05-21T09:36:17.043Z,55.14
2019-05-21T09:37:19.630Z,55.54
2019-05-21T09:38:17.002Z,55.24
2019-05-21T09:39:16.990Z,55.24
2019-05-21T09:40:16.989Z,54.24
2019-05-21T09:41:17.004Z,54.34
2019-05-21T09:42:16.966Z,54.14
2019-05-21T09:43:16.968Z,54.94
2019-05-21T09:44:16.944Z,55.14
2019-05-21T09:45:16.933Z,54.41
2019-05-21T09:46:16.953Z,54.22
2019-05-21T09:47:16.909Z,54.91
2019-05-21T09:48:16.914Z,54.82
2019-05-21T09:49:16.890Z,54.32
2019-05-21T09:50:16.876Z,53.89
2019-05-21T09:51:20.035Z,54.32
2019-05-21T09:52:16.866Z,54.91
2019-05-21T09:53:16.847Z,54.49
2019-05-21T09:54:16.856Z,53.59
2019-05-21T09:55:16.852Z,52.76
2019-05-21T09:56:16.828Z,52.84
2019-05-21T09:57:16.809Z,51.67
2019-05-21T09:58:16.804Z,51.77
2019-05-21T09:59:16.819Z,52.55
2019-05-21T10:00:16.777Z,53.14
2019-05-21T10:01:16.780Z,51.25
2019-05-21T10:02:16.758Z,51.75
2019-05-21T10:03:25.994Z,51.54
2019-05-21T10:04:16.737Z,51.22
2019-05-21T10:05:16.728Z,50.52
2019-05-21T10:06:16.761Z,51.52
2019-05-21T10:07:38.895Z,50.73
2019-05-21T10:08:17.692Z,50.82
2019-05-21T10:09:16.673Z,50.82
2019-05-21T10:10:16.667Z,51.00
2019-05-21T10:11:23.957Z,50.20
2019-05-21T10:12:16.665Z,50.00
2019-05-21T10:13:16.628Z,49.10
2019-05-21T10:14:16.629Z,50.74
2019-05-21T10:15:16.611Z,50.25
2019-05-21T10:16:16.633Z,50.85
2019-05-21T10:17:16.612Z,50.35
2019-05-21T10:18:16.601Z,51.32
2019-05-21T10:19:16.574Z,51.03
2019-05-21T10:20:16.576Z,51.52
2019-05-21T10:21:16.555Z,51.52
2019-05-21T10:22:16.571Z,51.62
2019-05-21T10:23:16.535Z,50.73
2019-05-21T10:24:16.517Z,50.52
2019-05-21T10:25:16.503Z,51.72
2019-05-21T10:26:16.493Z,49.33
2019-05-21T10:27:16.517Z,50.43
2019-05-21T10:28:25.587Z,50.43
2019-05-21T10:29:16.488Z,50.70
2019-05-21T10:30:16.460Z,51.00
2019-05-21T10:31:16.440Z,50.20
2019-05-21T10:32:16.460Z,50.40
2019-05-21T10:33:16.426Z,51.00
2019-05-21T10:34:16.414Z,50.60
2019-05-21T10:35:16.409Z,50.92
2019-05-21T10:36:16.394Z,51.82
2019-05-21T10:37:16.399Z,52.22
2019-05-21T10:38:16.434Z,51.12
2019-05-21T10:39:16.356Z,50.43
2019-05-21T10:40:16.358Z,50.32
2019-05-21T10:41:16.340Z,50.82
2019-05-21T10:42:16.346Z,51.03
2019-05-21T10:43:16.313Z,51.22
2019-05-21T10:44:16.307Z,51.92
2019-05-21T10:45:16.297Z,51.32
2019-05-21T10:46:16.289Z,51.50
2019-05-21T10:47:16.583Z,51.70
2019-05-21T10:48:16.293Z,50.87
2019-05-21T10:49:16.258Z,50.85
2019-05-21T10:50:16.250Z,49.16
2019-05-21T10:51:16.260Z,49.36
2019-05-21T10:52:16.248Z,49.55
2019-05-21T10:53:16.216Z,49.06
2019-05-21T10:54:16.208Z,50.15
2019-05-21T10:55:17.628Z,50.52
2019-05-21T10:56:16.194Z,50.55
2019-05-21T10:57:16.215Z,49.16
2019-05-21T10:58:16.170Z,48.66
2019-05-21T10:59:16.152Z,48.96
2019-05-21T11:00:16.137Z,49.76
2019-05-21T11:01:16.249Z,49.51
2019-05-21T11:02:16.138Z,50.13
2019-05-21T11:03:16.114Z,50.82
2019-05-21T11:04:16.104Z,50.43
2019-05-21T11:05:16.097Z,50.82
2019-05-21T11:06:16.070Z,50.52
2019-05-21T11:07:16.099Z,50.73
2019-05-21T11:08:24.797Z,50.73
2019-05-21T11:09:17.041Z,50.73
2019-05-21T11:10:16.133Z,51.22
2019-05-21T11:11:20.772Z,50.92
2019-05-21T11:12:17.067Z,50.63
2019-05-21T11:13:15.999Z,50.03
2019-05-21T11:14:15.993Z,48.89
2019-05-21T11:15:15.981Z,48.27
2019-05-21T11:16:15.968Z,47.05
2019-05-21T11:17:15.978Z,47.57
2019-05-21T11:18:15.955Z,48.39
2019-05-21T11:19:16.166Z,47.80
2019-05-21T11:20:16.137Z,47.00
2019-05-21T11:21:16.232Z,47.52
2019-05-21T11:22:16.673Z,47.92
2019-05-21T11:23:15.987Z,48.61
2019-05-21T11:24:16.116Z,48.61
2019-05-21T11:25:15.880Z,48.52
2019-05-21T11:26:15.892Z,49.41
2019-05-21T11:27:15.868Z,49.11
2019-05-21T11:28:15.839Z,49.01
2019-05-21T11:29:15.840Z,49.61
2019-05-21T11:30:15.827Z,48.91
2019-05-21T11:31:15.972Z,48.44
2019-05-21T11:33:17.161Z,48.74
2019-05-21T11:34:37.005Z,48.54
2019-05-21T11:35:15.820Z,49.23
2019-05-21T11:36:15.852Z,49.43
2019-05-21T11:37:16.032Z,49.13
2019-05-21T11:38:15.879Z,48.74
2019-05-21T11:39:15.957Z,48.83
2019-05-21T11:40:16.575Z,49.23
2019-05-21T11:43:46.809Z,50.25
2019-05-21T11:44:46.555Z,49.13
2019-05-21T11:45:46.528Z,49.26
2019-05-21T11:46:46.509Z,50.08
2019-05-21T11:47:46.549Z,50.38
2019-05-21T11:48:46.335Z,50.27
2019-05-21T11:49:46.338Z,50.78
2019-05-21T11:50:46.307Z,50.05
2019-05-21T11:51:46.300Z,49.71
2019-05-21T11:52:46.300Z,48.39
2019-05-21T11:53:46.276Z,48.07
2019-05-21T11:54:46.284Z,47.05
2019-05-21T11:55:46.259Z,46.42
2019-05-21T11:56:46.237Z,46.02
2019-05-21T11:57:46.246Z,46.02
2019-05-21T11:58:46.240Z,45.72
2019-05-21T11:59:46.202Z,47.16
2019-05-21T12:00:46.204Z,47.57
2019-05-21T12:01:46.188Z,47.10
2019-05-21T12:02:46.194Z,47.80
2019-05-21T12:03:46.162Z,47.50
2019-05-21T12:04:46.161Z,48.91
2019-05-21T12:05:46.149Z,49.31
2019-05-21T12:06:46.148Z,49.61
2019-05-21T12:07:46.150Z,49.71
2019-05-21T12:08:56.054Z,49.33
2019-05-21T12:09:47.100Z,49.31
2019-05-21T12:10:46.146Z,49.01
2019-05-21T12:11:46.089Z,50.01
2019-05-21T12:12:46.109Z,49.41
2019-05-21T12:13:46.101Z,48.81
2019-05-21T12:14:46.046Z,48.61
2019-05-21T12:15:46.041Z,48.02
2019-05-21T12:16:46.030Z,48.61
2019-05-21T12:17:46.029Z,48.34
2019-05-21T12:18:46.031Z,48.71
2019-05-21T12:19:45.994Z,48.71
2019-05-21T12:20:45.989Z,49.13
2019-05-21T12:21:46.007Z,49.43
2019-05-21T12:22:45.970Z,48.83
2019-05-21T12:23:45.997Z,48.94
2019-05-21T12:24:45.953Z,48.54
2019-05-21T12:25:45.938Z,49.06
2019-05-21T12:26:45.928Z,49.06
2019-05-21T12:27:45.930Z,49.46
2019-05-21T12:28:45.938Z,49.16
2019-05-21T12:29:45.909Z,49.55
2019-05-21T12:30:45.884Z,49.16
2019-05-21T12:31:45.872Z,49.16
2019-05-21T12:32:45.865Z,49.06
2019-05-21T12:33:45.873Z,49.55
2019-05-21T12:34:45.843Z,49.36
2019-05-21T12:35:45.844Z,49.06
2019-05-21T12:36:45.822Z,48.76
2019-05-21T12:37:45.816Z,49.46
2019-05-21T12:38:45.911Z,48.64
2019-05-21T12:39:45.797Z,48.94
2019-05-21T12:40:45.777Z,47.50
2019-05-21T12:41:45.795Z,46.36
2019-05-21T12:42:45.773Z,45.82
2019-05-21T12:43:45.772Z,45.82
2019-05-21T12:44:45.741Z,44.09
2019-05-21T12:45:45.745Z,43.87
2019-05-21T12:46:45.742Z,44.67
2019-05-21T12:47:45.719Z,44.02
2019-05-21T12:48:45.723Z,43.12
2019-05-21T12:49:45.684Z,43.37
2019-05-21T12:50:45.677Z,42.46
2019-05-21T12:51:45.683Z,42.36
2019-05-21T12:52:45.655Z,42.78
2019-05-21T12:53:45.661Z,43.29
2019-05-21T12:54:45.629Z,42.82
2019-05-21T12:55:45.621Z,43.75
2019-05-21T12:56:45.610Z,43.63
2019-05-21T12:57:45.606Z,43.41
2019-05-21T12:58:45.670Z,43.12